TimeEDT,TemperatureF,Dew PointF,Humidity,Sea Level PressureIn,VisibilityMPH,Wind Direction,Wind SpeedMPH,Gust SpeedMPH,PrecipitationIn,Events,Conditions,WindDirDegrees,DateUTC
12:56 AM,34.0,8.1,34,30.08,10.0,NW,11.5,-,N/A,,Clear,310,2013-03-15 04:56:00
1:56 AM,33.1,7.0,34,30.06,10.0,NW,9.2,-,N/A,,Clear,310,2013-03-15 05:56:00
2:56 AM,30.0,8.1,40,30.06,10.0,West,3.5,-,N/A,,Clear,280,2013-03-15 06:56:00
3:56 AM,28.9,12.0,49,30.05,10.0,SW,4.6,-,N/A,,Clear,230,2013-03-15 07:56:00
4:56 AM,30.9,16.0,54,30.04,10.0,WNW,4.6,-,N/A,,Clear,290,2013-03-15 08:56:00
5:56 AM,30.0,17.1,59,30.03,10.0,WSW,4.6,-,N/A,,Clear,240,2013-03-15 09:56:00
6:56 AM,28.9,18.0,64,30.03,10.0,West,6.9,-,N/A,,Clear,260,2013-03-15 10:56:00
7:56 AM,32.0,19.0,59,30.02,10.0,West,5.8,-,N/A,,Clear,260,2013-03-15 11:56:00
8:56 AM,35.1,19.9,54,30.01,10.0,WSW,8.1,-,N/A,,Clear,240,2013-03-15 12:56:00
9:56 AM,37.0,21.0,52,29.99,10.0,SW,11.5,-,N/A,,Scattered Clouds,220,2013-03-15 13:56:00
10:56 AM,39.0,19.9,46,29.96,10.0,SW,10.4,-,N/A,,Overcast,230,2013-03-15 14:56:00
11:56 AM,42.1,21.9,45,29.93,10.0,SSW,11.5,-,N/A,,Overcast,210,2013-03-15 15:56:00
12:56 PM,46.0,21.9,39,29.89,10.0,West,13.8,24.2,N/A,,Clear,260,2013-03-15 16:56:00
1:56 PM,50.0,24.1,36,29.85,10.0,West,16.1,27.6,N/A,,Scattered Clouds,260,2013-03-15 17:56:00
2:56 PM,52.0,25.0,35,29.80,10.0,West,17.3,23.0,N/A,,Overcast,270,2013-03-15 18:56:00
3:56 PM,53.1,26.1,35,29.78,10.0,West,18.4,26.5,N/A,,Scattered Clouds,260,2013-03-15 19:56:00
4:56 PM,53.1,28.9,40,29.77,10.0,West,19.6,28.8,N/A,,Mostly Cloudy,270,2013-03-15 20:56:00
5:56 PM,53.1,30.0,41,29.76,10.0,WSW,15.0,20.7,N/A,,Overcast,250,2013-03-15 21:56:00
6:56 PM,51.1,30.0,44,29.78,10.0,West,8.1,20.7,N/A,,Scattered Clouds,270,2013-03-15 22:56:00
7:56 PM,48.0,28.9,48,29.80,10.0,WNW,8.1,-,N/A,,Clear,290,2013-03-15 23:56:00
8:56 PM,46.9,30.0,52,29.81,10.0,Calm,Calm,-,N/A,,Overcast,0,2013-03-16 00:56:00
9:56 PM,45.0,30.9,58,29.81,10.0,West,4.6,-,N/A,,Overcast,270,2013-03-16 01:56:00
10:56 PM,48.0,30.0,50,29.82,10.0,NW,8.1,-,N/A,,Overcast,310,2013-03-16 02:56:00
11:56 PM,46.9,30.0,52,29.81,10.0,NW,6.9,-,N/A,,Scattered Clouds,320,2013-03-16 03:56:00